createdAt,value
2024-04-22T00:01:13.921Z,84.72
2024-04-22T00:03:40.630Z,85.63
2024-04-22T00:06:07.289Z,85.95
2024-04-22T00:08:33.937Z,86.77
2024-04-22T00:11:05.579Z,86.55
2024-04-22T00:13:33.707Z,87.23
2024-04-22T00:16:00.556Z,86.75
2024-04-22T00:18:27.233Z,86.79
2024-04-22T00:20:54.153Z,86.80
2024-04-22T00:23:21.712Z,87.44
2024-04-22T00:25:48.461Z,87.97
2024-04-22T00:28:15.289Z,88.64
2024-04-22T00:30:42.013Z,88.83
2024-04-22T00:33:10.355Z,89.19
2024-04-22T00:35:38.920Z,89.36
2024-04-22T00:38:05.743Z,89.82
2024-04-22T00:40:32.417Z,90.18
2024-04-22T00:43:00.359Z,90.50
2024-04-22T00:45:27.411Z,90.55
2024-04-22T00:47:54.242Z,90.56
2024-04-22T00:50:21.013Z,90.06
2024-04-22T00:52:47.649Z,90.47
2024-04-22T00:55:14.382Z,90.33
2024-04-22T00:57:41.626Z,90.56
2024-04-22T01:00:09.032Z,90.67
2024-04-22T01:02:35.743Z,90.60
2024-04-22T01:05:02.652Z,91.10
2024-04-22T01:07:29.640Z,90.88
2024-04-22T01:09:56.367Z,90.27
2024-04-22T01:12:23.032Z,89.90
2024-04-22T01:14:49.669Z,90.02
2024-04-22T01:17:16.482Z,89.37
2024-04-22T01:19:43.189Z,89.14
2024-04-22T01:22:09.866Z,89.39
2024-04-22T01:24:37.154Z,89.11
2024-04-22T01:27:05.240Z,89.29
2024-04-22T01:29:31.949Z,89.99
2024-04-22T01:31:58.643Z,89.65
2024-04-22T01:34:25.306Z,89.44
2024-04-22T01:36:52.073Z,89.16
2024-04-22T01:39:18.722Z,89.33
2024-04-22T01:41:45.386Z,89.60
2024-04-22T01:44:12.098Z,89.78
2024-04-22T01:46:38.870Z,89.76
2024-04-22T01:49:05.699Z,89.65
2024-04-22T01:51:32.381Z,89.25
2024-04-22T01:53:59.066Z,89.65
2024-04-22T01:56:25.808Z,89.35
2024-04-22T01:58:53.325Z,89.55
2024-04-22T02:01:20.052Z,89.80
2024-04-22T02:03:46.779Z,89.66
2024-04-22T02:06:13.460Z,89.69
2024-04-22T02:08:40.090Z,88.56
2024-04-22T02:11:07.127Z,89.26
2024-04-22T02:13:33.938Z,88.87
2024-04-22T02:16:00.645Z,89.37
2024-04-22T02:18:28.602Z,89.50
2024-04-22T02:20:55.254Z,90.13
2024-04-22T02:23:21.881Z,90.55
2024-04-22T02:25:48.616Z,90.89
2024-04-22T02:28:15.290Z,91.29
2024-04-22T02:30:41.939Z,91.40
2024-04-22T02:33:09.840Z,91.88
2024-04-22T02:35:36.844Z,91.78
2024-04-22T02:38:04.040Z,92.41
2024-04-22T02:40:30.904Z,92.36
2024-04-22T02:42:57.642Z,92.87
2024-04-22T02:45:26.050Z,93.07
2024-04-22T02:47:52.730Z,93.48
2024-04-22T02:50:19.368Z,93.74
2024-04-22T02:52:46.078Z,94.11
2024-04-22T02:55:12.777Z,94.43
2024-04-22T02:57:39.433Z,94.17
2024-04-22T03:00:06.600Z,94.71
2024-04-22T03:02:33.388Z,95.13
2024-04-22T03:05:00.144Z,95.13
2024-04-22T03:07:28.211Z,95.32
2024-04-22T03:09:54.987Z,95.22
2024-04-22T03:12:21.593Z,94.91
2024-04-22T03:14:48.203Z,94.75
2024-04-22T03:17:14.986Z,95.19
2024-04-22T03:19:41.752Z,94.88
2024-04-22T03:22:08.465Z,94.75
2024-04-22T03:24:35.152Z,94.78
2024-04-22T03:27:01.799Z,94.66
2024-04-22T03:29:28.990Z,94.65
2024-04-22T03:31:55.790Z,94.31
2024-04-22T03:34:22.518Z,93.58
2024-04-22T03:36:49.297Z,93.22
2024-04-22T03:39:16.026Z,92.69
2024-04-22T03:41:42.642Z,92.73
2024-04-22T03:44:10.651Z,92.21
2024-04-22T03:46:55.931Z,92.14
2024-04-22T03:49:41.287Z,91.93
2024-04-22T03:52:08.090Z,91.70
2024-04-22T03:54:34.782Z,91.35
2024-04-22T03:57:01.433Z,91.10
2024-04-22T03:59:28.432Z,91.60
2024-04-22T04:01:55.107Z,91.32
2024-04-22T04:04:21.900Z,91.10
2024-04-22T04:06:48.625Z,90.35
2024-04-22T04:09:15.401Z,89.68
2024-04-22T04:11:42.513Z,89.49
2024-04-22T04:14:09.222Z,89.09
2024-04-22T04:16:36.216Z,88.85
2024-04-22T04:19:03.766Z,88.64
2024-04-22T04:21:30.520Z,88.55
2024-04-22T04:23:57.154Z,88.38
2024-04-22T04:26:23.903Z,87.91
2024-04-22T04:28:51.144Z,88.52
2024-04-22T04:31:19.388Z,88.50
2024-04-22T04:33:46.082Z,88.71
2024-04-22T04:36:12.890Z,88.72
2024-04-22T04:38:39.561Z,88.94
2024-04-22T04:41:06.294Z,88.51
2024-04-22T04:43:33.327Z,89.00
2024-04-22T04:46:00.154Z,88.68
2024-04-22T04:48:26.990Z,88.53
2024-04-22T04:50:53.963Z,89.03
2024-04-22T04:53:21.334Z,89.60
2024-04-22T04:55:49.092Z,89.55
2024-04-22T04:58:16.334Z,90.25
2024-04-22T05:00:43.413Z,90.43
2024-04-22T05:03:10.472Z,90.60
2024-04-22T05:05:37.200Z,91.14
2024-04-22T05:08:05.203Z,91.58
2024-04-22T05:10:32.461Z,90.89
2024-04-22T05:12:59.154Z,91.38
2024-04-22T05:15:26.478Z,91.43
2024-04-22T05:17:53.464Z,91.70
2024-04-22T05:20:20.215Z,91.79
2024-04-22T05:22:46.965Z,91.67
2024-04-22T05:25:13.743Z,92.07
2024-04-22T05:27:40.467Z,92.01
2024-04-22T05:30:07.644Z,91.91
2024-04-22T05:32:34.746Z,92.11
2024-04-22T05:35:20.110Z,92.17
2024-04-22T05:37:46.817Z,92.40
2024-04-22T05:40:13.538Z,92.15
2024-04-22T05:42:40.178Z,92.12
2024-04-22T05:45:06.854Z,91.89
2024-04-22T05:47:33.655Z,91.36
2024-04-22T05:50:01.545Z,91.20
2024-04-22T05:52:28.701Z,91.05
2024-04-22T05:54:55.534Z,90.31
2024-04-22T05:57:22.468Z,90.17
2024-04-22T05:59:49.245Z,89.76
2024-04-22T06:02:16.503Z,89.15
2024-04-22T06:04:43.265Z,88.99
2024-04-22T06:07:10.001Z,88.65
2024-04-22T06:09:36.701Z,88.62
2024-04-22T06:12:14.632Z,88.13
2024-04-22T06:14:44.818Z,87.18
2024-04-22T06:17:11.623Z,86.17
2024-04-22T06:19:38.858Z,85.69
2024-04-22T06:22:05.660Z,84.69
2024-04-22T06:24:33.247Z,84.11
2024-04-22T06:27:00.015Z,83.04
2024-04-22T06:29:26.811Z,82.08
2024-04-22T06:31:53.785Z,81.16
2024-04-22T06:34:20.619Z,80.60
2024-04-22T06:36:47.356Z,81.17
2024-04-22T06:39:14.038Z,80.84
2024-04-22T06:41:40.784Z,79.49
2024-04-22T06:44:07.407Z,78.26
2024-04-22T06:46:34.270Z,77.53
2024-04-22T06:49:00.964Z,76.38
2024-04-22T06:51:27.584Z,76.00
2024-04-22T06:53:54.251Z,76.16
2024-04-22T06:56:20.923Z,76.16
2024-04-22T06:58:47.635Z,75.71
2024-04-22T07:01:24.019Z,75.63
2024-04-22T07:03:59.281Z,75.40
2024-04-22T07:06:26.148Z,75.29
2024-04-22T07:08:52.898Z,74.99
2024-04-22T07:11:19.686Z,74.20
2024-04-22T07:13:47.093Z,74.19
2024-04-22T07:16:15.421Z,73.76
2024-04-22T07:18:42.072Z,73.96
2024-04-22T07:21:08.732Z,73.33
2024-04-22T07:23:35.493Z,73.43
2024-04-22T07:26:05.672Z,72.89
2024-04-22T07:28:33.029Z,73.14
2024-04-22T07:31:00.059Z,72.90
2024-04-22T07:33:30.929Z,72.19
2024-04-22T07:36:19.131Z,72.18
2024-04-22T07:38:48.200Z,71.11
2024-04-22T07:41:15.116Z,70.02
2024-04-22T07:43:41.838Z,69.82
2024-04-22T07:46:08.506Z,69.13
2024-04-22T07:48:35.207Z,68.74
2024-04-22T07:51:05.269Z,67.80
2024-04-22T07:53:32.313Z,68.54
2024-04-22T07:55:59.196Z,68.17
2024-04-22T07:58:26.126Z,68.08
2024-04-22T08:00:53.972Z,69.63
2024-04-22T08:03:21.245Z,68.41
2024-04-22T08:05:48.228Z,68.09
2024-04-22T08:08:16.350Z,66.26
2024-04-22T08:10:43.119Z,66.91
2024-04-22T08:13:10.728Z,67.73
2024-04-22T08:15:37.417Z,68.89
2024-04-22T08:18:04.148Z,66.56
2024-04-22T08:20:30.892Z,67.00
2024-04-22T08:23:00.652Z,64.69
2024-04-22T08:25:27.569Z,64.86
2024-04-22T08:27:54.360Z,63.44
2024-04-22T08:30:21.430Z,61.86
2024-04-22T08:32:48.281Z,62.49
2024-04-22T08:35:16.161Z,60.48
2024-04-22T08:37:43.077Z,60.57
2024-04-22T08:40:10.505Z,57.71
2024-04-22T08:42:38.643Z,54.00
2024-04-22T08:45:06.869Z,53.66
2024-04-22T08:47:33.961Z,50.84
2024-04-22T08:50:01.143Z,50.23
2024-04-22T08:52:33.640Z,49.99
2024-04-22T08:55:07.348Z,49.21
2024-04-22T08:57:34.310Z,49.51
2024-04-22T09:00:01.202Z,48.69
2024-04-22T09:02:27.964Z,47.95
2024-04-22T09:04:54.817Z,50.44
2024-04-22T09:07:21.834Z,51.20
2024-04-22T09:10:07.758Z,51.12
2024-04-22T09:12:36.088Z,50.86
2024-04-22T09:15:03.594Z,51.45
2024-04-22T09:17:30.874Z,52.18
2024-04-22T09:19:57.837Z,50.16
2024-04-22T09:22:24.541Z,50.53
2024-04-22T09:24:51.311Z,50.12
2024-04-22T09:27:18.165Z,49.24
2024-04-22T09:29:45.223Z,48.98
2024-04-22T09:32:14.177Z,48.24
2024-04-22T09:34:42.342Z,48.06
2024-04-22T09:37:09.539Z,47.07
2024-04-22T09:39:38.972Z,47.54
2024-04-22T09:42:06.152Z,48.55
2024-04-22T09:44:33.587Z,49.31
2024-04-22T09:47:00.776Z,48.41
2024-04-22T09:49:30.354Z,48.72
2024-04-22T09:51:58.425Z,49.62
2024-04-22T09:54:25.508Z,51.05
2024-04-22T09:56:53.087Z,50.13
2024-04-22T09:59:20.886Z,50.05
2024-04-22T10:01:47.987Z,49.76
2024-04-22T10:04:15.295Z,48.73
2024-04-22T10:06:42.527Z,46.53
2024-04-22T10:09:09.264Z,44.56
2024-04-22T10:11:38.193Z,45.31
2024-04-22T10:14:18.545Z,44.31
2024-04-22T10:16:58.168Z,46.21
2024-04-22T10:19:27.816Z,44.22
2024-04-22T10:22:00.224Z,44.29
2024-04-22T10:24:30.726Z,43.88
2024-04-22T10:27:05.376Z,43.78
2024-04-22T10:29:38.383Z,41.85
2024-04-22T10:32:05.612Z,43.67
2024-04-22T10:34:32.364Z,43.35
2024-04-22T10:36:59.190Z,41.79
2024-04-22T10:39:25.853Z,42.79
2024-04-22T10:41:52.587Z,41.68
2024-04-22T10:44:19.342Z,44.06
2024-04-22T10:46:46.163Z,44.77
2024-04-22T10:49:13.004Z,47.43
2024-04-22T10:51:39.740Z,49.73
2024-04-22T10:54:06.439Z,49.87
2024-04-22T10:56:33.086Z,49.41
2024-04-22T10:59:01.141Z,49.32
2024-04-22T11:01:28.175Z,48.48
2024-04-22T11:03:54.913Z,48.94
2024-04-22T11:06:21.667Z,48.44
2024-04-22T11:08:48.509Z,48.18
2024-04-22T11:11:16.797Z,45.88
2024-04-22T11:13:43.973Z,42.95
2024-04-22T11:16:11.689Z,42.65
2024-04-22T11:18:38.998Z,41.09
2024-04-22T11:21:06.258Z,42.70
2024-04-22T11:23:32.931Z,44.32
2024-04-22T11:26:00.625Z,44.08
2024-04-22T11:28:27.381Z,45.42
2024-04-22T11:30:55.493Z,46.67
2024-04-22T11:33:24.886Z,46.41
2024-04-22T11:35:52.475Z,47.08
2024-04-22T11:38:19.644Z,49.36
2024-04-22T11:40:47.259Z,50.51
2024-04-22T11:43:14.280Z,50.01
2024-04-22T11:45:41.788Z,50.64
2024-04-22T11:48:08.739Z,49.11
2024-04-22T11:50:38.224Z,49.47
2024-04-22T11:53:14.715Z,50.16
2024-04-22T11:55:47.916Z,50.26
2024-04-22T11:58:14.865Z,48.26
2024-04-22T12:00:41.616Z,47.79
2024-04-22T12:03:08.576Z,46.75
2024-04-22T12:05:35.447Z,46.45
2024-04-22T12:08:02.271Z,45.72
2024-04-22T12:10:29.140Z,44.25
2024-04-22T12:12:55.819Z,41.34
2024-04-22T12:15:22.719Z,42.23
2024-04-22T12:17:49.901Z,42.66
2024-04-22T12:20:16.697Z,43.03
2024-04-22T12:22:43.367Z,44.77
2024-04-22T12:25:10.018Z,46.07
2024-04-22T12:27:36.971Z,48.02
2024-04-22T12:30:03.877Z,49.00
2024-04-22T12:32:32.741Z,45.23
2024-04-22T12:35:03.115Z,45.33
2024-04-22T12:37:32.958Z,44.32
2024-04-22T12:39:59.592Z,44.29
2024-04-22T12:42:26.241Z,42.61
2024-04-22T12:44:52.926Z,43.61
2024-04-22T12:47:38.265Z,47.24
2024-04-22T12:50:23.566Z,49.60
2024-04-22T12:52:50.566Z,49.78
2024-04-22T12:55:17.718Z,50.08
2024-04-22T12:57:44.497Z,48.76
2024-04-22T13:00:14.373Z,48.03
2024-04-22T13:02:41.411Z,46.96
2024-04-22T13:05:08.280Z,46.16
2024-04-22T13:07:35.235Z,46.06
2024-04-22T13:10:02.155Z,47.01
2024-04-22T13:12:28.869Z,47.48
2024-04-22T13:14:55.528Z,47.00
2024-04-22T13:17:22.349Z,48.03
2024-04-22T13:19:49.219Z,46.92
2024-04-22T13:22:16.207Z,45.35
2024-04-22T13:24:43.029Z,43.87
2024-04-22T13:27:09.677Z,42.12
2024-04-22T13:29:36.324Z,42.60
2024-04-22T13:32:03.245Z,42.44
2024-04-22T13:34:30.175Z,42.56
2024-04-22T13:36:56.937Z,42.64
2024-04-22T13:39:26.095Z,45.14
2024-04-22T13:41:53.116Z,45.10
2024-04-22T13:44:19.808Z,47.42
2024-04-22T13:46:46.593Z,47.00
2024-04-22T13:49:15.231Z,46.95
2024-04-22T13:51:42.319Z,45.65
2024-04-22T13:54:09.690Z,42.42
2024-04-22T13:56:37.019Z,40.23
2024-04-22T13:59:04.049Z,40.34
2024-04-22T14:01:31.246Z,40.82
2024-04-22T14:03:58.173Z,39.07
2024-04-22T14:06:24.837Z,38.34
2024-04-22T14:08:51.680Z,38.20
2024-04-22T14:11:18.687Z,40.11
2024-04-22T14:13:45.741Z,43.91
2024-04-22T14:16:12.414Z,48.42
2024-04-22T14:18:39.145Z,52.68
2024-04-22T14:21:05.895Z,56.42
2024-04-22T14:23:32.561Z,57.66
2024-04-22T14:26:00.564Z,60.27
2024-04-22T14:28:28.545Z,60.29
2024-04-22T14:30:55.871Z,63.76
2024-04-22T14:33:23.882Z,65.84
2024-04-22T14:35:51.299Z,64.76
2024-04-22T14:38:18.042Z,65.18
2024-04-22T14:40:45.316Z,62.76
2024-04-22T14:43:12.068Z,62.91
2024-04-22T14:45:38.845Z,64.42
2024-04-22T14:48:05.965Z,66.21
2024-04-22T14:50:32.738Z,65.91
2024-04-22T14:53:01.331Z,66.46
2024-04-22T14:55:29.471Z,64.42
2024-04-22T14:57:56.207Z,63.92
2024-04-22T15:00:22.989Z,64.02
2024-04-22T15:02:50.221Z,63.90
2024-04-22T15:05:17.043Z,64.24
2024-04-22T15:07:43.778Z,64.21
2024-04-22T15:10:10.450Z,63.02
2024-04-22T15:12:37.111Z,63.28
2024-04-22T15:15:03.983Z,63.91
2024-04-22T15:17:30.839Z,62.07
2024-04-22T15:19:57.740Z,62.52
2024-04-22T15:22:24.418Z,59.97
2024-04-22T15:24:51.060Z,56.41
2024-04-22T15:27:17.751Z,54.05
2024-04-22T15:29:44.471Z,51.18
2024-04-22T15:32:11.169Z,49.02
2024-04-22T15:34:39.567Z,47.16
2024-04-22T15:37:06.619Z,44.52
2024-04-22T15:39:33.662Z,45.10
2024-04-22T15:42:00.483Z,44.09
2024-04-22T15:44:27.200Z,38.39
2024-04-22T15:46:54.398Z,36.72
2024-04-22T15:49:21.255Z,36.00
2024-04-22T15:51:47.955Z,38.19
2024-04-22T15:54:14.763Z,39.40
2024-04-22T15:56:42.456Z,40.92
2024-04-22T15:59:09.382Z,42.04
2024-04-22T16:01:36.707Z,43.72
2024-04-22T16:04:03.813Z,45.22
2024-04-22T16:06:30.658Z,46.19
2024-04-22T16:08:59.397Z,46.92
2024-04-22T16:11:26.191Z,47.76
2024-04-22T16:13:52.981Z,48.40
2024-04-22T16:16:19.748Z,47.35
2024-04-22T16:18:46.444Z,48.83
2024-04-22T16:21:17.286Z,47.86
2024-04-22T16:23:44.489Z,47.61
2024-04-22T16:26:11.512Z,42.67
2024-04-22T16:28:38.370Z,40.92
2024-04-22T16:31:05.225Z,40.94
2024-04-22T16:33:31.871Z,40.75
2024-04-22T16:35:58.589Z,37.11
2024-04-22T16:38:25.336Z,37.56
2024-04-22T16:40:52.258Z,38.38
2024-04-22T16:43:21.111Z,37.49
2024-04-22T16:45:48.479Z,40.12
2024-04-22T16:48:15.300Z,42.02
2024-04-22T16:50:42.734Z,42.33
2024-04-22T16:53:09.722Z,41.37
2024-04-22T16:55:36.475Z,40.31
2024-04-22T16:58:03.241Z,38.14
2024-04-22T17:00:30.733Z,37.86
2024-04-22T17:02:57.390Z,38.86
2024-04-22T17:05:24.090Z,40.23
2024-04-22T17:07:50.897Z,41.19
2024-04-22T17:10:19.056Z,42.32
2024-04-22T17:12:45.916Z,43.40
2024-04-22T17:15:12.714Z,43.86
2024-04-22T17:17:39.616Z,44.30
2024-04-22T17:20:07.338Z,45.20
2024-04-22T17:22:34.046Z,45.61
2024-04-22T17:25:00.713Z,45.38
2024-04-22T17:27:28.376Z,45.07
2024-04-22T17:29:55.072Z,46.14
2024-04-22T17:32:21.851Z,45.91
2024-04-22T17:34:48.581Z,45.19
2024-04-22T17:37:19.444Z,44.85
2024-04-22T17:39:49.302Z,44.25
2024-04-22T17:42:15.993Z,43.54
2024-04-22T17:44:42.757Z,43.05
2024-04-22T17:47:09.456Z,42.31
2024-04-22T17:49:36.207Z,42.39
2024-04-22T17:52:02.897Z,42.08
2024-04-22T17:54:29.551Z,42.23
2024-04-22T17:57:02.355Z,42.52
2024-04-22T17:59:33.586Z,41.51
2024-04-22T18:02:00.223Z,42.24
2024-04-22T18:04:27.408Z,41.66
2024-04-22T18:06:54.115Z,41.99
2024-04-22T18:09:20.802Z,40.90
2024-04-22T18:11:47.612Z,41.12
2024-04-22T18:14:14.498Z,41.42
2024-04-22T18:16:42.360Z,41.33
2024-04-22T18:19:09.138Z,41.00
2024-04-22T18:21:35.829Z,40.83
2024-04-22T18:24:05.910Z,41.58
2024-04-22T18:26:34.444Z,40.95
2024-04-22T18:29:01.649Z,41.54
2024-04-22T18:31:28.402Z,41.86
2024-04-22T18:33:55.077Z,41.99
2024-04-22T18:36:21.713Z,42.60
2024-04-22T18:38:49.175Z,42.80
2024-04-22T18:41:16.018Z,43.29
2024-04-22T18:43:42.786Z,43.31
2024-04-22T18:46:09.707Z,43.61
2024-04-22T18:48:36.525Z,44.28
2024-04-22T18:51:07.108Z,44.39
2024-04-22T18:53:34.786Z,44.75
2024-04-22T18:56:01.528Z,45.67
2024-04-22T18:58:29.480Z,45.94
2024-04-22T19:00:58.828Z,46.22
2024-04-22T19:03:25.569Z,45.73
2024-04-22T19:05:52.234Z,46.29
2024-04-22T19:08:18.922Z,47.27
2024-04-22T19:10:45.764Z,47.44
2024-04-22T19:13:12.506Z,47.73
2024-04-22T19:15:39.185Z,48.03
2024-04-22T19:18:06.262Z,47.85
2024-04-22T19:20:33.031Z,47.96
2024-04-22T19:22:59.710Z,48.16
2024-04-22T19:25:26.485Z,48.63
2024-04-22T19:27:53.591Z,49.04
2024-04-22T19:30:20.233Z,49.71
2024-04-22T19:32:47.030Z,49.79
2024-04-22T19:35:15.653Z,50.26
2024-04-22T19:37:42.415Z,50.90
2024-04-22T19:40:09.164Z,51.24
2024-04-22T19:42:35.799Z,51.35
2024-04-22T19:45:04.020Z,51.76
2024-04-22T19:47:31.297Z,52.15
2024-04-22T19:49:58.229Z,51.95
2024-04-22T19:52:25.133Z,52.82
2024-04-22T19:54:54.805Z,52.79
2024-04-22T19:57:23.128Z,53.53
2024-04-22T19:59:51.024Z,53.79
2024-04-22T20:02:17.788Z,53.79
2024-04-22T20:04:45.111Z,54.16
2024-04-22T20:07:11.901Z,53.98
2024-04-22T20:09:38.734Z,54.25
2024-04-22T20:12:05.964Z,54.46
2024-04-22T20:14:32.622Z,54.67
2024-04-22T20:17:10.724Z,54.17
2024-04-22T20:19:38.568Z,54.79
2024-04-22T20:22:08.530Z,55.12
2024-04-22T20:24:35.229Z,55.75
2024-04-22T20:27:02.377Z,56.36
2024-04-22T20:29:29.143Z,56.86
2024-04-22T20:31:56.126Z,57.65
2024-04-22T20:34:23.210Z,57.17
2024-04-22T20:36:52.928Z,57.13
2024-04-22T20:39:22.867Z,57.95
2024-04-22T20:41:49.603Z,57.87
2024-04-22T20:44:16.387Z,58.28
2024-04-22T20:46:43.152Z,58.18
2024-04-22T20:49:09.992Z,58.71
2024-04-22T20:51:37.415Z,59.53
2024-04-22T20:54:04.218Z,58.79
2024-04-22T20:56:30.829Z,59.24
2024-04-22T20:58:57.816Z,58.85
2024-04-22T21:01:24.530Z,59.30
2024-04-22T21:03:51.275Z,59.69
2024-04-22T21:06:18.211Z,60.12
2024-04-22T21:08:44.864Z,60.32
2024-04-22T21:11:11.668Z,60.79
2024-04-22T21:13:43.871Z,60.92
2024-04-22T21:16:10.859Z,60.41
2024-04-22T21:18:37.570Z,61.02
2024-04-22T21:21:04.754Z,61.17
2024-04-22T21:23:32.318Z,61.21
2024-04-22T21:25:58.977Z,61.31
2024-04-22T21:28:25.787Z,61.42
2024-04-22T21:30:52.583Z,61.65
2024-04-22T21:33:35.227Z,61.76
2024-04-22T21:36:06.427Z,61.94
2024-04-22T21:38:33.129Z,61.82
2024-04-22T21:40:59.788Z,61.66
2024-04-22T21:43:27.358Z,61.86
2024-04-22T21:45:54.136Z,61.69
2024-04-22T21:48:24.759Z,61.93
2024-04-22T21:50:52.392Z,61.92
2024-04-22T21:53:20.038Z,62.09
2024-04-22T21:55:49.279Z,62.38
2024-04-22T21:58:53.859Z,62.62
2024-04-22T22:01:58.540Z,63.28
2024-04-22T22:05:03.141Z,63.48
2024-04-22T22:07:29.939Z,64.01
2024-04-22T22:09:56.625Z,63.90
2024-04-22T22:12:24.545Z,64.29
2024-04-22T22:14:51.848Z,64.72
2024-04-22T22:17:18.878Z,64.82
2024-04-22T22:19:47.330Z,64.66
2024-04-22T22:22:14.034Z,64.46
2024-04-22T22:24:44.867Z,64.74
2024-04-22T22:27:13.202Z,64.91
2024-04-22T22:29:40.387Z,65.17
2024-04-22T22:32:07.527Z,65.10
2024-04-22T22:34:34.449Z,65.25
2024-04-22T22:37:03.396Z,64.73
2024-04-22T22:39:30.411Z,64.52
2024-04-22T22:41:57.072Z,64.64
2024-04-22T22:44:24.302Z,65.09
2024-04-22T22:46:51.351Z,65.06
2024-04-22T22:49:18.056Z,65.14
2024-04-22T22:51:44.743Z,64.95
2024-04-22T22:54:11.442Z,64.88
2024-04-22T22:56:38.091Z,64.45
2024-04-22T22:59:04.748Z,64.04
2024-04-22T23:01:31.467Z,63.88
2024-04-22T23:03:58.204Z,64.27
2024-04-22T23:06:25.317Z,64.16
2024-04-22T23:08:52.148Z,63.87
2024-04-22T23:11:18.915Z,64.08
2024-04-22T23:13:45.704Z,64.39
2024-04-22T23:16:13.427Z,64.47
2024-04-22T23:18:40.143Z,65.29
2024-04-22T23:21:06.840Z,65.65
2024-04-22T23:23:33.511Z,65.96
2024-04-22T23:26:00.255Z,66.29
2024-04-22T23:28:27.108Z,66.11
2024-04-22T23:30:53.796Z,66.52
2024-04-22T23:33:20.534Z,66.46
2024-04-22T23:35:47.317Z,66.60
2024-04-22T23:38:14.030Z,67.42
2024-04-22T23:40:40.649Z,67.61
2024-04-22T23:43:07.296Z,67.68
2024-04-22T23:45:34.097Z,68.01
2024-04-22T23:48:00.932Z,68.14
2024-04-22T23:50:27.720Z,67.95
2024-04-22T23:52:54.470Z,68.03
2024-04-22T23:55:21.198Z,68.17
2024-04-22T23:57:47.837Z,68.36
